Time;durP1;ratioP1;P1;durP2;ratioP2;P2;SDS_P1;SDS_P2;PMS_P1;PMS_P2;Temp;Humidity;BMP_temperature;BMP_pressure;BME280_temperature;BME280_humidity;BME280_pressure;Samples;Min_cycle;Max_cycle;Signal;HPM_P1;HPM_P2
2023/10/16 00:01:26;;;;;;;0.50;0.45;;;8.50;99.90;;;;;;5023756;28;20056;-78
2023/10/16 00:03:51;;;;;;;2.47;0.30;;;8.50;99.90;;;;;;5022767;28;20045;-78
2023/10/16 00:06:17;;;;;;;0.95;0.82;;;8.50;99.90;;;;;;5023793;28;20045;-77
2023/10/16 00:08:53;;;;;;;2.50;0.35;;;8.50;99.90;;;;;;5018874;28;20080;-78
2023/10/16 00:11:23;;;;;;;0.35;0.25;;;8.50;99.90;;;;;;5004473;28;20050;-78
2023/10/16 00:13:49;;;;;;;0.65;0.30;;;8.50;99.90;;;;;;5003028;28;20054;-78
2023/10/16 00:16:17;;;;;;;0.35;0.20;;;8.50;99.90;;;;;;5003880;28;20072;-78
2023/10/16 00:18:45;;;;;;;1.27;0.20;;;8.50;99.90;;;;;;5006377;28;20045;-78
2023/10/16 00:21:13;;;;;;;1.95;0.20;;;8.50;99.90;;;;;;5023416;28;20041;-78
2023/10/16 00:23:39;;;;;;;1.52;0.30;;;8.50;99.90;;;;;;5024821;28;20049;-78
2023/10/16 00:26:06;;;;;;;4.25;0.75;;;8.50;99.90;;;;;;5022746;28;20058;-77
2023/10/16 00:28:33;;;;;;;0.50;0.22;;;8.60;99.90;;;;;;5022848;28;20045;-77
2023/10/16 00:30:58;;;;;;;2.00;0.85;;;8.60;99.90;;;;;;5023838;28;20523;-77
2023/10/16 00:33:24;;;;;;;0.28;0.13;;;8.60;99.90;;;;;;5022886;28;20037;-78
2023/10/16 00:35:49;;;;;;;1.17;0.60;;;8.60;99.90;;;;;;5023507;28;20503;-77
2023/10/16 00:38:15;;;;;;;6.85;0.55;;;8.60;99.90;;;;;;5021667;28;20049;-78
2023/10/16 00:40:51;;;;;;;1.63;0.50;;;8.60;99.90;;;;;;5022491;28;20041;-78
2023/10/16 00:43:21;;;;;;;1.15;0.50;;;8.60;99.90;;;;;;5003195;28;20177;-77
2023/10/16 00:46:06;;;;;;;2.63;0.30;;;8.60;99.90;;;;;;5023236;28;20037;-77
2023/10/16 00:48:39;;;;;;;1.65;0.73;;;8.60;99.90;;;;;;5022291;28;20116;-77
2023/10/16 00:51:08;;;;;;;0.43;0.30;;;8.60;99.90;;;;;;5023451;28;20064;-77
2023/10/16 00:53:38;;;;;;;2.47;0.38;;;8.60;99.90;;;;;;5021651;28;20049;-77
2023/10/16 00:56:08;;;;;;;1.00;0.40;;;8.60;99.90;;;;;;5022600;28;20049;-77
2023/10/16 00:58:37;;;;;;;0.43;0.22;;;8.60;99.90;;;;;;5023006;28;20034;-77
2023/10/16 01:01:09;;;;;;;1.13;0.57;;;8.60;99.90;;;;;;5023017;28;20049;-77
2023/10/16 01:03:36;;;;;;;1.55;0.50;;;8.50;99.90;;;;;;5022628;28;20050;-77
2023/10/16 01:06:03;;;;;;;0.25;0.20;;;8.60;99.90;;;;;;5021827;28;20115;-78
2023/10/16 01:08:29;;;;;;;3.97;0.55;;;8.60;99.90;;;;;;5022401;28;20107;-77
2023/10/16 01:10:57;;;;;;;1.35;0.80;;;8.50;99.90;;;;;;5021184;28;20045;-78
2023/10/16 01:13:26;;;;;;;0.20;0.20;;;8.50;99.90;;;;;;5022946;28;20041;-77
2023/10/16 01:15:53;;;;;;;1.40;0.30;;;8.50;99.90;;;;;;5023164;28;20253;-78
2023/10/16 01:18:18;;;;;;;0.47;0.22;;;8.50;99.90;;;;;;5020420;28;20459;-78
2023/10/16 01:20:51;;;;;;;0.63;0.30;;;8.50;99.90;;;;;;5021402;28;20048;-78
2023/10/16 01:23:25;;;;;;;0.38;0.32;;;8.60;99.90;;;;;;5020777;28;20046;-77
2023/10/16 01:25:51;;;;;;;0.20;0.20;;;8.50;99.90;;;;;;5022119;28;20056;-77
2023/10/16 01:28:19;;;;;;;0.75;0.30;;;8.50;99.90;;;;;;5021281;28;20116;-77
2023/10/16 01:30:47;;;;;;;3.05;1.10;;;8.50;99.90;;;;;;5022522;28;20483;-78
2023/10/16 01:33:18;;;;;;;2.78;0.65;;;8.60;99.90;;;;;;5019966;28;20042;-77
2023/10/16 01:35:45;;;;;;;0.77;0.43;;;8.60;99.90;;;;;;5021096;28;20527;-77
2023/10/16 01:38:15;;;;;;;0.45;0.20;;;8.50;99.90;;;;;;5020917;28;20053;-78
2023/10/16 01:41:13;;;;;;;0.47;0.47;;;8.50;99.90;;;;;;5020881;28;20048;-78
2023/10/16 01:43:38;;;;;;;1.15;0.30;;;8.50;99.90;;;;;;5020151;28;20046;-78
2023/10/16 01:46:09;;;;;;;0.25;0.22;;;8.50;99.90;;;;;;5021890;28;20034;-77
2023/10/16 01:48:40;;;;;;;2.53;0.63;;;8.50;99.90;;;;;;5021340;28;20088;-77
2023/10/16 01:51:06;;;;;;;0.73;0.22;;;8.50;99.90;;;;;;5021060;28;20099;-77
2023/10/16 01:53:36;;;;;;;0.20;0.20;;;8.40;99.90;;;;;;5022492;28;20096;-77
2023/10/16 01:56:12;;;;;;;0.45;0.30;;;8.40;99.90;;;;;;5020753;28;20720;-78
2023/10/16 01:58:42;;;;;;;3.30;0.98;;;8.40;99.90;;;;;;5020920;28;20103;-77
2023/10/16 02:01:09;;;;;;;2.00;0.38;;;8.40;99.90;;;;;;5019892;28;20041;-78
2023/10/16 02:03:35;;;;;;;0.73;0.73;;;8.40;99.90;;;;;;5021436;28;20037;-77
2023/10/16 02:06:01;;;;;;;1.73;0.68;;;8.40;99.90;;;;;;5021293;28;20034;-78
2023/10/16 02:08:26;;;;;;;1.10;0.20;;;8.40;99.90;;;;;;5021947;28;20106;-78
2023/10/16 02:10:52;;;;;;;0.52;0.28;;;8.40;99.90;;;;;;5020894;28;20065;-78
2023/10/16 02:13:18;;;;;;;1.75;0.30;;;8.40;99.90;;;;;;5019574;28;20057;-78
2023/10/16 02:15:43;;;;;;;0.65;0.38;;;8.40;99.90;;;;;;5004030;28;20216;-77
2023/10/16 02:18:42;;;;;;;0.63;0.20;;;8.40;99.90;;;;;;5020379;28;20045;-77
2023/10/16 02:21:00;;;;;;;0.95;0.25;;;8.40;99.90;;;;;;5018673;28;20523;-77
2023/10/16 02:23:30;;;;;;;1.35;0.15;;;8.40;99.90;;;;;;5020154;28;20046;-78
2023/10/16 02:25:56;;;;;;;2.35;0.38;;;8.40;99.90;;;;;;5019942;28;20089;-77
2023/10/16 02:28:22;;;;;;;2.90;0.30;;;8.40;99.90;;;;;;5020589;28;20045;-78
2023/10/16 02:30:49;;;;;;;0.60;0.30;;;8.40;99.90;;;;;;5020726;28;20049;-78
2023/10/16 02:33:23;;;;;;;0.98;0.35;;;8.40;99.90;;;;;;5019290;28;20037;-77
2023/10/16 02:35:50;;;;;;;1.95;0.32;;;8.50;99.90;;;;;;5021592;28;20052;-77
2023/10/16 02:38:23;;;;;;;0.55;0.28;;;8.50;99.90;;;;;;5020017;28;20045;-77
2023/10/16 02:40:52;;;;;;;0.35;0.28;;;8.50;99.90;;;;;;5021116;28;20037;-77
2023/10/16 02:43:20;;;;;;;2.13;0.30;;;8.50;99.90;;;;;;5020107;28;20045;-78
2023/10/16 02:45:47;;;;;;;1.88;0.40;;;8.50;99.90;;;;;;5020107;28;20041;-78
2023/10/16 02:48:18;;;;;;;0.50;0.20;;;8.50;99.90;;;;;;5019232;28;20068;-78
2023/10/16 02:50:54;;;;;;;2.03;0.32;;;8.50;99.90;;;;;;5004120;28;20103;-78
2023/10/16 02:53:25;;;;;;;6.43;0.70;;;8.50;99.90;;;;;;5021366;28;20064;-77
2023/10/16 02:55:58;;;;;;;0.63;0.63;;;8.60;99.90;;;;;;5020546;28;20128;-77
2023/10/16 02:58:26;;;;;;;1.75;0.43;;;8.60;99.90;;;;;;5019845;28;20029;-77
2023/10/16 03:01:06;;;;;;;0.85;0.32;;;8.60;99.90;;;;;;5020095;28;20095;-77
2023/10/16 03:03:32;;;;;;;0.50;0.50;;;8.60;99.90;;;;;;5020314;28;20049;-77
2023/10/16 03:05:59;;;;;;;2.75;0.28;;;8.60;99.90;;;;;;5019969;28;20099;-77
2023/10/16 03:08:31;;;;;;;0.45;0.20;;;8.60;99.90;;;;;;5020700;28;20053;-77
2023/10/16 03:10:58;;;;;;;0.57;0.40;;;8.60;99.90;;;;;;5020050;28;20119;-77
2023/10/16 03:13:24;;;;;;;0.47;0.10;;;8.60;99.90;;;;;;5020428;28;20049;-77
2023/10/16 03:15:58;;;;;;;0.20;0.20;;;8.70;99.90;;;;;;5023200;28;20621;-78
2023/10/16 03:18:24;;;;;;;4.30;1.13;;;8.70;99.90;;;;;;5023265;28;20052;-77
2023/10/16 03:23:43;;;;;;;1.02;0.40;;;8.70;99.90;;;;;;5024635;28;20527;-77
2023/10/16 03:26:11;;;;;;;1.42;0.45;;;8.70;99.90;;;;;;5024068;28;20080;-77
2023/10/16 03:28:37;;;;;;;0.05;0.05;;;8.70;99.90;;;;;;5023914;28;20140;-77
2023/10/16 03:31:03;;;;;;;1.45;0.38;;;8.70;99.90;;;;;;5024453;28;20140;-77
2023/10/16 03:33:30;;;;;;;0.20;0.13;;;8.70;99.90;;;;;;5023386;28;20108;-78
2023/10/16 03:35:57;;;;;;;0.10;0.10;;;8.70;99.90;;;;;;5022663;28;20053;-77
2023/10/16 03:38:27;;;;;;;0.25;0.17;;;8.70;99.90;;;;;;5022849;28;20054;-77
2023/10/16 03:40:53;;;;;;;0.45;0.15;;;8.70;99.90;;;;;;5023235;28;20068;-77
2023/10/16 03:43:22;;;;;;;1.10;0.20;;;8.70;99.90;;;;;;5006258;28;20042;-77
2023/10/16 03:45:49;;;;;;;0.93;0.93;;;8.70;99.90;;;;;;5022614;28;20041;-78
2023/10/16 03:48:16;;;;;;;3.08;0.70;;;8.80;99.90;;;;;;5024395;28;20056;-77
2023/10/16 03:50:43;;;;;;;0.93;0.50;;;8.80;99.90;;;;;;5022536;28;20119;-77
2023/10/16 03:53:09;;;;;;;0.28;0.20;;;8.80;99.90;;;;;;5024819;28;20103;-77
2023/10/16 03:55:50;;;;;;;5.30;1.38;;;8.80;99.90;;;;;;5007397;28;20081;-77
2023/10/16 03:58:16;;;;;;;0.60;0.20;;;8.70;99.90;;;;;;5022894;28;20095;-77
2023/10/16 04:00:56;;;;;;;1.17;0.20;;;8.80;99.90;;;;;;5024495;28;20037;-77
2023/10/16 04:03:23;;;;;;;2.83;0.90;;;8.80;99.90;;;;;;5022239;28;20145;-77
2023/10/16 04:05:50;;;;;;;0.47;0.20;;;8.80;99.90;;;;;;5023281;28;20779;-77
2023/10/16 04:08:18;;;;;;;0.20;0.20;;;8.80;99.90;;;;;;5005847;28;20061;-77
2023/10/16 04:10:47;;;;;;;1.15;0.25;;;8.80;99.90;;;;;;5023956;28;20474;-77
2023/10/16 04:13:14;;;;;;;0.10;0.10;;;8.80;99.90;;;;;;5023338;28;20124;-77
2023/10/16 04:18:28;;;;;;;0.68;0.68;;;8.80;99.90;;;;;;5022461;28;20057;-77
2023/10/16 04:31:45;;;;;;;1.50;0.40;;;8.70;99.90;;;;;;5002238;28;20062;-77
2023/10/16 04:34:24;;;;;;;0.10;0.10;;;8.60;99.90;;;;;;4997996;28;20046;-77
2023/10/16 05:06:28;;;;;;;1.00;0.82;;;8.50;99.90;;;;;;5006174;28;20399;-78
2023/10/16 05:17:21;;;;;;;2.20;0.30;;;8.60;99.90;;;;;;5022358;28;20072;-78
2023/10/16 05:19:53;;;;;;;2.47;0.77;;;8.70;99.90;;;;;;5004734;28;20038;-78
2023/10/16 06:14:47;;;;;;;1.15;0.60;;;8.90;99.90;;;;;;5020712;28;20095;-77
2023/10/16 06:17:15;;;;;;;0.73;0.70;;;9.00;99.90;;;;;;5019617;28;20045;-76
2023/10/16 06:19:44;;;;;;;0.63;0.52;;;8.90;99.90;;;;;;5019583;28;20087;-76
2023/10/16 06:22:10;;;;;;;1.98;0.47;;;9.00;99.90;;;;;;5013899;28;20485;-76
2023/10/16 06:24:36;;;;;;;0.40;0.40;;;9.00;99.90;;;;;;5019367;28;20985;-76
2023/10/16 06:27:10;;;;;;;2.63;0.30;;;9.00;99.90;;;;;;5034907;28;20064;-76
2023/10/16 06:29:41;;;;;;;0.82;0.70;;;9.00;99.90;;;;;;5024914;28;20041;-76
2023/10/16 06:32:07;;;;;;;0.45;0.43;;;9.00;99.90;;;;;;5040057;28;20074;-76
2023/10/16 06:34:37;;;;;;;1.73;1.27;;;9.00;99.90;;;;;;5040561;28;20068;-76
2023/10/16 06:37:06;;;;;;;0.50;0.50;;;9.10;99.90;;;;;;5029812;28;20444;-76
2023/10/16 06:39:37;;;;;;;5.50;1.40;;;9.10;99.90;;;;;;5035657;28;20506;-76
2023/10/16 06:42:03;;;;;;;0.45;0.45;;;9.10;99.90;;;;;;5040752;28;20074;-76
2023/10/16 06:44:30;;;;;;;0.57;0.30;;;9.10;99.90;;;;;;5053695;28;20026;-76
2023/10/16 06:46:58;;;;;;;2.65;0.75;;;9.10;99.90;;;;;;5019648;28;20452;-76
2023/10/16 06:49:26;;;;;;;2.10;0.65;;;9.10;99.90;;;;;;5023787;28;20049;-76
2023/10/16 06:51:58;;;;;;;4.70;1.23;;;9.20;99.90;;;;;;5030273;28;20052;-76
2023/10/16 06:54:25;;;;;;;1.00;0.55;;;9.20;99.90;;;;;;5037688;28;20551;-77
2023/10/16 06:56:52;;;;;;;1.33;0.43;;;9.10;99.90;;;;;;5025825;28;20115;-75
2023/10/16 06:59:17;;;;;;;0.90;0.65;;;9.20;99.90;;;;;;5024342;28;20049;-76
2023/10/16 07:01:46;;;;;;;0.50;0.40;;;9.20;99.90;;;;;;5039769;28;20041;-77
2023/10/16 07:04:14;;;;;;;3.35;1.00;;;9.20;99.90;;;;;;5042798;28;20091;-76
2023/10/16 07:06:42;;;;;;;1.25;0.98;;;9.20;99.90;;;;;;5024337;28;20488;-76
2023/10/16 07:09:09;;;;;;;5.47;1.55;;;9.20;99.90;;;;;;5023784;28;20053;-76
2023/10/16 07:11:35;;;;;;;20.95;1.02;;;9.20;99.90;;;;;;5023284;28;20080;-77
2023/10/16 07:14:00;;;;;;;1.50;0.60;;;9.20;99.90;;;;;;5023485;28;20045;-76
2023/10/16 07:16:26;;;;;;;1.45;0.40;;;9.20;99.90;;;;;;5024465;28;20172;-76
2023/10/16 07:18:57;;;;;;;1.58;0.60;;;9.20;99.90;;;;;;5038206;28;20167;-77
2023/10/16 07:21:24;;;;;;;1.85;0.52;;;9.20;99.90;;;;;;5023637;28;20404;-76
2023/10/16 07:23:53;;;;;;;3.17;0.70;;;9.30;99.90;;;;;;5024129;28;20041;-75
2023/10/16 07:26:19;;;;;;;3.30;0.70;;;9.20;99.90;;;;;;5019763;28;20124;-75
2023/10/16 07:28:48;;;;;;;1.10;0.68;;;9.30;99.90;;;;;;5002911;28;20539;-74
2023/10/16 07:31:16;;;;;;;2.53;1.10;;;9.30;99.90;;;;;;5026642;28;20261;-74
2023/10/16 07:33:50;;;;;;;1.90;0.80;;;9.30;99.90;;;;;;5023647;28;20420;-76
2023/10/16 07:36:17;;;;;;;1.67;0.55;;;9.30;99.90;;;;;;5027151;28;20522;-76
2023/10/16 07:38:44;;;;;;;0.90;0.50;;;9.30;99.90;;;;;;5024932;28;20038;-76
2023/10/16 07:41:13;;;;;;;2.17;0.50;;;9.40;99.90;;;;;;5031098;28;20751;-77
2023/10/16 07:43:39;;;;;;;1.88;0.60;;;9.40;99.90;;;;;;5006447;28;20036;-76
2023/10/16 07:48:41;;;;;;;1.67;1.13;;;9.40;99.90;;;;;;5022026;28;20045;-76
2023/10/16 07:51:08;;;;;;;1.08;0.43;;;9.50;99.90;;;;;;5022604;28;20045;-76
2023/10/16 07:53:34;;;;;;;0.47;0.45;;;9.50;99.90;;;;;;5014664;28;20095;-76
2023/10/16 07:56:02;;;;;;;3.65;0.50;;;9.50;99.90;;;;;;5021113;28;20507;-77
2023/10/16 07:58:33;;;;;;;1.30;0.45;;;9.50;99.90;;;;;;5019210;28;20112;-76
2023/10/16 08:03:46;;;;;;;0.85;0.70;;;9.60;99.90;;;;;;4989813;28;20044;-75
2023/10/16 08:06:17;;;;;;;2.88;0.50;;;9.60;99.90;;;;;;5021410;28;20408;-75
2023/10/16 08:08:48;;;;;;;3.03;0.60;;;9.60;99.90;;;;;;5019758;28;20084;-75
2023/10/16 08:11:19;;;;;;;4.50;0.60;;;9.60;99.90;;;;;;5009092;28;20507;-75
2023/10/16 08:13:48;;;;;;;0.73;0.63;;;9.60;99.90;;;;;;5021952;28;20049;-75
2023/10/16 08:16:17;;;;;;;3.17;1.20;;;9.60;99.90;;;;;;5020459;28;20046;-76
2023/10/16 08:18:49;;;;;;;0.98;0.68;;;9.70;99.90;;;;;;5021765;28;20052;-75
2023/10/16 08:21:24;;;;;;;11.10;0.70;;;9.70;99.90;;;;;;5012177;28;20053;-75
2023/10/16 08:23:57;;;;;;;5.25;0.40;;;9.70;99.90;;;;;;5001475;28;20065;-75
2023/10/16 08:26:30;;;;;;;3.15;1.25;;;9.70;99.90;;;;;;5001564;28;20041;-75
2023/10/16 08:28:56;;;;;;;3.67;1.42;;;9.80;99.90;;;;;;4985563;28;20054;-75
2023/10/16 08:31:25;;;;;;;2.95;0.60;;;9.80;99.90;;;;;;5008593;28;20038;-75
2023/10/16 08:33:54;;;;;;;2.47;0.85;;;9.80;99.90;;;;;;5004464;28;20056;-75
2023/10/16 08:36:20;;;;;;;2.47;0.73;;;9.80;99.90;;;;;;5020177;28;20033;-75
2023/10/16 08:38:53;;;;;;;3.72;0.70;;;9.80;99.90;;;;;;5021508;28;20111;-75
2023/10/16 08:41:41;;;;;;;4.63;0.93;;;9.90;99.90;;;;;;5017707;28;20598;-75
2023/10/16 08:44:08;;;;;;;2.92;0.82;;;9.90;99.90;;;;;;5002054;28;20046;-75
2023/10/16 08:46:35;;;;;;;1.50;0.75;;;9.90;99.90;;;;;;5000323;28;20045;-75
2023/10/16 08:49:02;;;;;;;1.83;0.60;;;9.90;99.90;;;;;;5002182;28;20046;-75
2023/10/16 08:51:29;;;;;;;1.25;0.60;;;10.00;99.90;;;;;;5001308;28;20061;-75
2023/10/16 08:53:59;;;;;;;3.90;0.55;;;10.00;99.90;;;;;;4991680;28;20046;-75
2023/10/16 08:56:25;;;;;;;1.80;0.75;;;10.00;99.90;;;;;;5003998;28;20076;-75
2023/10/16 08:58:55;;;;;;;2.28;0.68;;;10.10;99.90;;;;;;5022080;28;20132;-75
2023/10/16 09:01:23;;;;;;;2.97;0.77;;;10.10;99.90;;;;;;5018539;28;20513;-75
2023/10/16 09:04:05;;;;;;;2.17;0.93;;;10.10;99.90;;;;;;5020329;28;20029;-75
2023/10/16 09:06:37;;;;;;;2.80;0.90;;;10.10;99.90;;;;;;5018826;28;20037;-75
2023/10/16 09:09:12;;;;;;;1.00;0.90;;;10.10;99.90;;;;;;5021415;28;20085;-75
2023/10/16 09:11:40;;;;;;;1.02;0.75;;;10.20;99.90;;;;;;5019766;28;20076;-75
2023/10/16 09:14:07;;;;;;;0.90;0.70;;;10.20;99.90;;;;;;5020712;28;20045;-75
2023/10/16 09:16:34;;;;;;;3.05;0.40;;;10.20;99.90;;;;;;5018372;28;20148;-75
2023/10/16 09:19:02;;;;;;;0.77;0.47;;;10.20;99.90;;;;;;5020920;28;20053;-75
2023/10/16 09:21:29;;;;;;;1.30;0.82;;;10.20;99.90;;;;;;5020023;28;20045;-75
2023/10/16 09:24:01;;;;;;;2.28;0.50;;;10.30;99.90;;;;;;5017066;28;20045;-75
2023/10/16 09:26:32;;;;;;;0.65;0.45;;;10.30;99.90;;;;;;5030088;28;20049;-75
2023/10/16 09:29:04;;;;;;;2.03;0.80;;;10.30;99.90;;;;;;5019834;28;20063;-75
2023/10/16 09:31:31;;;;;;;;;;;10.40;99.90;;;;;;5021939;28;20496;-75
2023/10/16 09:33:56;;;;;;;1.02;0.47;;;10.40;99.90;;;;;;5003095;28;19920;-75
2023/10/16 09:36:22;;;;;;;0.50;0.38;;;10.40;99.90;;;;;;5021051;28;20515;-75
2023/10/16 09:38:52;;;;;;;0.80;0.55;;;10.40;99.90;;;;;;5020295;28;20376;-75
2023/10/16 09:43:56;;;;;;;2.42;0.65;;;10.50;99.90;;;;;;5000370;28;20129;-75
2023/10/16 09:49:13;;;;;;;2.63;0.98;;;10.60;99.90;;;;;;4999708;28;20061;-76
2023/10/16 09:51:40;;;;;;;2.00;0.60;;;10.60;99.90;;;;;;5001206;28;20155;-76
2023/10/16 09:54:09;;;;;;;5.32;1.05;;;10.60;99.90;;;;;;5021997;28;20225;-75
2023/10/16 09:56:39;;;;;;;3.40;0.70;;;10.60;99.90;;;;;;5019847;28;20049;-75
2023/10/16 09:59:23;;;;;;;3.38;0.85;;;10.60;99.90;;;;;;5019955;28;20175;-75
2023/10/16 10:01:51;;;;;;;1.67;0.52;;;10.60;99.90;;;;;;5018969;28;20041;-75
2023/10/16 10:04:19;;;;;;;5.35;1.05;;;10.60;99.90;;;;;;5020813;28;20056;-75
2023/10/16 10:06:50;;;;;;;3.03;0.85;;;10.60;99.90;;;;;;5019816;28;20076;-75
2023/10/16 10:12:22;;;;;;;2.38;0.68;;;10.60;99.90;;;;;;5018744;28;20076;-75
2023/10/16 10:15:12;;;;;;;2.58;0.57;;;10.60;99.90;;;;;;5017752;28;20056;-75
2023/10/16 10:17:40;;;;;;;2.60;0.57;;;10.60;99.90;;;;;;5020120;28;20057;-75
2023/10/16 10:20:09;;;;;;;1.15;1.05;;;10.60;99.90;;;;;;5017805;28;20080;-75
2023/10/16 10:22:36;;;;;;;4.35;1.63;;;10.60;99.90;;;;;;5018558;28;20049;-75
2023/10/16 10:25:16;;;;;;;3.60;0.82;;;10.60;99.90;;;;;;5019262;28;20120;-75
2023/10/16 10:27:44;;;;;;;0.80;0.75;;;10.70;99.90;;;;;;5013172;28;20048;-76
2023/10/16 10:30:17;;;;;;;6.05;0.80;;;10.70;99.90;;;;;;5017933;28;20079;-75
2023/10/16 10:32:53;;;;;;;6.53;1.15;;;10.70;99.90;;;;;;5001643;28;20124;-75
2023/10/16 10:35:29;;;;;;;3.38;0.60;;;10.80;99.90;;;;;;5019627;28;20069;-75
2023/10/16 10:38:24;;;;;;;1.48;1.23;;;10.80;99.90;;;;;;5019443;28;20038;-75
2023/10/16 10:41:11;;;;;;;4.80;0.65;;;10.90;99.90;;;;;;4993679;28;20038;-75
2023/10/16 10:43:46;;;;;;;2.55;0.57;;;10.90;99.90;;;;;;5013980;28;20399;-75
2023/10/16 10:46:14;;;;;;;0.50;0.50;;;10.90;99.90;;;;;;5017622;28;20388;-76
2023/10/16 10:48:41;;;;;;;3.40;0.88;;;11.00;99.90;;;;;;5019026;28;20084;-75
2023/10/16 10:51:13;;;;;;;0.70;0.60;;;11.00;99.90;;;;;;5018873;28;20052;-75
2023/10/16 10:53:54;;;;;;;0.75;0.73;;;11.00;99.90;;;;;;5002800;28;20049;-75
2023/10/16 10:56:22;;;;;;;0.70;0.70;;;11.10;99.90;;;;;;5019868;28;20042;-75
2023/10/16 10:58:49;;;;;;;1.42;0.47;;;11.10;99.90;;;;;;5020235;28;20080;-72
2023/10/16 11:01:33;;;;;;;1.13;0.40;;;11.10;99.90;;;;;;5015323;28;20125;-73
2023/10/16 11:04:01;;;;;;;1.33;0.57;;;11.20;99.90;;;;;;5017641;28;20092;-73
2023/10/16 11:06:39;;;;;;;0.52;0.40;;;11.20;99.90;;;;;;5016402;28;20125;-73
2023/10/16 11:09:18;;;;;;;5.97;0.80;;;11.20;99.90;;;;;;5000692;28;20050;-74
2023/10/16 11:11:45;;;;;;;0.80;0.60;;;11.30;99.90;;;;;;5002635;28;20049;-74
2023/10/16 11:14:12;;;;;;;7.97;0.77;;;11.30;99.90;;;;;;5002168;28;20133;-74
2023/10/16 11:16:45;;;;;;;0.28;0.22;;;11.30;99.90;;;;;;5019155;28;20053;-74
2023/10/16 11:19:11;;;;;;;6.30;0.45;;;11.30;99.90;;;;;;5017855;28;20061;-74
2023/10/16 11:21:43;;;;;;;4.32;0.50;;;11.30;99.90;;;;;;5019937;28;20441;-74
2023/10/16 11:24:10;;;;;;;0.38;0.38;;;11.30;99.90;;;;;;5032326;28;20111;-74
2023/10/16 11:26:38;;;;;;;3.03;0.60;;;11.30;99.90;;;;;;5019679;28;20045;-74
2023/10/16 11:29:04;;;;;;;0.77;0.35;;;11.30;99.90;;;;;;4997088;28;20041;-73
2023/10/16 11:31:30;;;;;;;1.08;0.32;;;11.40;99.90;;;;;;5016011;28;20455;-74
2023/10/16 11:34:07;;;;;;;0.43;0.20;;;11.40;99.90;;;;;;5017614;28;20209;-74
2023/10/16 11:36:36;;;;;;;0.57;0.28;;;11.40;99.90;;;;;;5020665;28;20115;-74
2023/10/16 11:39:06;;;;;;;0.57;0.30;;;11.40;99.90;;;;;;5022278;28;20049;-74
2023/10/16 11:41:32;;;;;;;0.50;0.50;;;11.40;99.90;;;;;;5018255;28;20052;-74
2023/10/16 11:44:01;;;;;;;5.40;1.40;;;11.40;99.90;;;;;;5020778;28;20048;-74
2023/10/16 11:46:29;;;;;;;4.25;0.45;;;11.50;99.90;;;;;;5022399;28;20046;-73
2023/10/16 11:49:17;;;;;;;0.75;0.50;;;11.50;99.90;;;;;;5017109;28;20038;-73
2023/10/16 11:51:45;;;;;;;5.05;0.30;;;11.50;99.90;;;;;;5021625;28;20045;-73
2023/10/16 11:54:11;;;;;;;5.80;1.40;;;11.50;99.90;;;;;;5021222;28;20076;-73
2023/10/16 11:56:37;;;;;;;1.58;0.43;;;11.50;99.90;;;;;;5021377;28;20042;-73
2023/10/16 11:59:03;;;;;;;3.00;0.70;;;11.60;99.90;;;;;;5022797;28;20222;-73
2023/10/16 12:01:30;;;;;;;1.55;0.30;;;11.60;99.90;;;;;;5020794;28;20492;-73
2023/10/16 12:03:56;;;;;;;4.15;0.50;;;11.60;99.90;;;;;;5021587;28;20044;-73
2023/10/16 12:06:22;;;;;;;0.40;0.40;;;11.60;99.90;;;;;;5023089;28;20049;-73
2023/10/16 12:08:48;;;;;;;1.60;0.60;;;11.70;99.90;;;;;;5012002;28;20052;-73
2023/10/16 12:11:14;;;;;;;1.88;0.82;;;11.70;99.90;;;;;;5006680;28;20555;-73
2023/10/16 12:13:43;;;;;;;2.75;0.98;;;11.70;99.90;;;;;;4986400;28;20365;-73
2023/10/16 12:16:09;;;;;;;0.70;0.45;;;11.70;99.90;;;;;;4996242;28;20315;-73
2023/10/16 12:18:34;;;;;;;3.47;0.40;;;11.70;99.90;;;;;;5015760;28;20130;-73
2023/10/16 12:21:06;;;;;;;0.50;0.47;;;11.80;99.90;;;;;;5021439;28;20100;-72
2023/10/16 12:23:33;;;;;;;1.80;0.67;;;11.70;99.90;;;;;;5021616;28;20686;-73
2023/10/16 12:26:00;;;;;;;1.98;0.55;;;11.80;99.90;;;;;;5022701;28;20299;-73
2023/10/16 12:28:26;;;;;;;7.93;0.38;;;11.80;99.90;;;;;;5021627;28;20045;-73
2023/10/16 12:30:52;;;;;;;0.95;0.60;;;11.80;99.90;;;;;;5020891;28;20045;-73
2023/10/16 12:33:17;;;;;;;1.17;0.60;;;11.80;99.90;;;;;;5022139;28;20221;-73
2023/10/16 12:35:43;;;;;;;1.13;0.50;;;11.80;99.90;;;;;;5022138;28;20622;-73
2023/10/16 12:38:10;;;;;;;0.68;0.40;;;11.80;99.90;;;;;;5022107;28;20434;-73
2023/10/16 12:40:39;;;;;;;1.92;0.40;;;11.80;99.90;;;;;;5022456;28;20053;-73
2023/10/16 12:43:08;;;;;;;0.35;0.32;;;11.80;99.90;;;;;;5003826;28;20049;-73
2023/10/16 12:45:34;;;;;;;1.98;0.40;;;11.80;99.90;;;;;;5018208;28;20041;-73
2023/10/16 12:48:00;;;;;;;2.25;0.50;;;11.80;99.90;;;;;;5021833;28;20092;-73
2023/10/16 12:50:27;;;;;;;2.63;0.50;;;11.80;99.90;;;;;;5021592;28;20040;-73
2023/10/16 12:52:58;;;;;;;1.42;1.33;;;11.80;99.90;;;;;;5020501;28;20408;-73
2023/10/16 12:55:24;;;;;;;1.63;0.40;;;11.80;99.90;;;;;;5020138;28;20034;-73
2023/10/16 12:57:53;;;;;;;3.90;1.23;;;11.90;99.90;;;;;;5019333;28;20057;-73
2023/10/16 13:00:21;;;;;;;0.95;0.60;;;11.90;99.90;;;;;;5020657;28;20033;-72
2023/10/16 13:02:51;;;;;;;4.53;0.32;;;11.90;99.90;;;;;;5012651;28;20044;-73
2023/10/16 13:05:24;;;;;;;0.85;0.40;;;11.90;99.90;;;;;;5026705;28;20076;-73
2023/10/16 13:07:50;;;;;;;3.97;0.43;;;11.90;99.90;;;;;;5028180;28;20136;-73
2023/10/16 13:10:20;;;;;;;1.25;0.47;;;11.90;99.90;;;;;;5022371;28;20484;-73
2023/10/16 13:12:46;;;;;;;1.60;0.93;;;11.90;99.90;;;;;;5003259;28;20041;-73
2023/10/16 13:15:15;;;;;;;0.68;0.45;;;11.90;99.90;;;;;;5018339;28;20119;-73
2023/10/16 13:17:42;;;;;;;1.83;0.50;;;11.90;99.90;;;;;;5023076;28;20041;-73
2023/10/16 13:20:17;;;;;;;0.35;0.30;;;11.90;99.90;;;;;;5033912;28;20071;-73
2023/10/16 13:22:49;;;;;;;1.73;0.50;;;11.90;99.90;;;;;;5038308;28;20456;-73
2023/10/16 13:25:22;;;;;;;0.85;0.60;;;12.00;99.90;;;;;;5019181;28;20387;-73
2023/10/16 13:27:48;;;;;;;;;;;11.90;99.90;;;;;;5028853;28;20037;-73
2023/10/16 13:30:16;;;;;;;0.47;0.30;;;12.00;99.90;;;;;;5028644;28;19920;-73
2023/10/16 13:32:46;;;;;;;1.58;0.40;;;12.00;99.90;;;;;;5027710;28;20159;-73
2023/10/16 13:35:16;;;;;;;1.33;0.50;;;11.90;99.90;;;;;;5020230;28;20136;-73
2023/10/16 13:37:46;;;;;;;0.40;0.40;;;11.90;99.90;;;;;;4999429;28;20091;-73
2023/10/16 13:40:28;;;;;;;3.22;1.00;;;11.90;99.90;;;;;;5013279;28;20529;-75
2023/10/16 13:42:55;;;;;;;0.65;0.43;;;11.90;99.90;;;;;;5016660;28;20049;-75
2023/10/16 13:45:22;;;;;;;0.50;0.50;;;11.90;99.90;;;;;;5014713;28;20069;-75
2023/10/16 13:47:49;;;;;;;0.65;0.45;;;11.90;99.90;;;;;;5022416;28;20060;-74
2023/10/16 13:50:17;;;;;;;2.03;0.63;;;11.90;99.90;;;;;;5020551;28;20052;-74
2023/10/16 13:52:43;;;;;;;2.50;0.40;;;11.90;99.90;;;;;;5022021;28;20503;-74
2023/10/16 13:55:13;;;;;;;3.83;1.17;;;11.90;99.90;;;;;;5021655;28;20029;-75
2023/10/16 13:57:42;;;;;;;3.15;0.52;;;11.90;99.90;;;;;;5020806;28;20091;-75
2023/10/16 14:00:18;;;;;;;3.08;1.05;;;11.90;99.90;;;;;;5019977;28;20464;-75
2023/10/16 14:02:44;;;;;;;3.10;0.80;;;11.90;99.90;;;;;;5020708;28;20120;-75
2023/10/16 14:05:13;;;;;;;1.13;0.35;;;11.90;99.90;;;;;;5020142;28;20049;-75
2023/10/16 14:07:38;;;;;;;3.38;1.40;;;11.90;99.90;;;;;;5020773;28;20061;-75
2023/10/16 14:10:04;;;;;;;0.52;0.30;;;11.90;99.90;;;;;;5020795;28;20789;-75
2023/10/16 14:12:37;;;;;;;1.38;0.55;;;11.90;99.90;;;;;;5019296;28;20519;-75
2023/10/16 14:15:03;;;;;;;1.67;0.75;;;11.90;99.90;;;;;;5018816;28;20124;-75
2023/10/16 14:17:37;;;;;;;0.80;0.50;;;11.90;99.90;;;;;;5019241;28;20132;-75
2023/10/16 14:20:11;;;;;;;1.95;0.50;;;11.90;99.90;;;;;;5019585;28;20060;-75
2023/10/16 14:22:47;;;;;;;2.85;0.47;;;11.80;99.90;;;;;;5020274;28;20396;-75
2023/10/16 14:25:13;;;;;;;0.57;0.50;;;11.90;99.90;;;;;;5000761;28;20046;-75
2023/10/16 14:27:39;;;;;;;6.63;0.50;;;11.90;99.90;;;;;;5018919;28;20411;-75
2023/10/16 14:30:08;;;;;;;2.95;0.50;;;11.80;99.90;;;;;;5018955;28;20029;-76
2023/10/16 14:32:34;;;;;;;1.98;0.90;;;11.80;99.90;;;;;;5002634;28;20052;-77
2023/10/16 14:35:00;;;;;;;5.30;0.98;;;11.80;99.90;;;;;;5023666;28;20142;-75
2023/10/16 14:37:26;;;;;;;0.40;0.22;;;11.80;99.90;;;;;;5016605;28;20073;-75
2023/10/16 14:39:56;;;;;;;2.30;0.35;;;11.80;99.90;;;;;;5017261;28;20042;-75
2023/10/16 14:42:22;;;;;;;3.88;0.68;;;11.80;99.90;;;;;;5019987;28;20139;-75
2023/10/16 14:44:48;;;;;;;8.88;0.65;;;11.80;99.90;;;;;;5002253;28;20083;-75
2023/10/16 14:47:15;;;;;;;1.25;0.50;;;11.80;99.90;;;;;;5019817;28;20041;-74
2023/10/16 14:49:41;;;;;;;0.73;0.30;;;11.80;99.90;;;;;;5014949;28;20049;-73
2023/10/16 14:52:07;;;;;;;1.27;0.47;;;11.80;99.90;;;;;;5018581;28;20037;-74
2023/10/16 14:54:33;;;;;;;0.40;0.28;;;11.70;99.90;;;;;;5021114;28;20046;-74
2023/10/16 14:57:00;;;;;;;2.65;1.13;;;11.70;99.90;;;;;;5020688;28;20052;-74
2023/10/16 14:59:26;;;;;;;2.00;0.30;;;11.70;99.90;;;;;;5019217;28;20393;-75
2023/10/16 15:01:54;;;;;;;1.90;0.47;;;11.70;99.90;;;;;;5020270;28;20463;-75
2023/10/16 15:04:20;;;;;;;0.57;0.30;;;11.70;99.90;;;;;;5019552;28;20148;-74